Time;durP1;ratioP1;P1;durP2;ratioP2;P2;SDS_P1;SDS_P2;PMS_P1;PMS_P2;Temp;Humidity;BMP_temperature;BMP_pressure;BME280_temperature;BME280_humidity;BME280_pressure;Samples;Min_cycle;Max_cycle;Signal;HPM_P1;HPM_P2
2021/11/14 00:01:03;;;;;;;;;55.40;43.40;;;;;11.28;50.74;99079.66;6050308;28;96883;-63
2021/11/14 00:04:07;;;;;;;;;53.20;41.80;;;;;11.27;50.79;99084.25;6024395;28;100661;-63
2021/11/14 00:07:14;;;;;;;;;56.00;41.00;;;;;11.29;50.72;99078.59;6023121;28;97151;-63
2021/11/14 00:10:17;;;;;;;;;53.00;41.00;;;;;11.28;50.63;99080.50;6036921;28;97079;-62
2021/11/14 00:13:21;;;;;;;;;56.60;44.00;;;;;11.19;50.56;99079.09;6014441;28;98780;-62
2021/11/14 00:16:26;;;;;;;;;55.00;43.00;;;;;11.21;50.95;99073.50;6032517;28;97521;-63
2021/11/14 00:19:30;;;;;;;;;57.40;43.80;;;;;11.22;50.77;99084.06;6034577;28;96926;-63
2021/11/14 00:22:36;;;;;;;;;55.60;43.20;;;;;11.11;51.10;99063.19;6016893;28;99621;-63
2021/11/14 00:25:40;;;;;;;;;58.00;43.80;;;;;11.12;50.99;99077.50;6030643;28;97847;-64
2021/11/14 00:28:43;;;;;;;;;60.20;43.60;;;;;11.10;51.10;99077.72;6032559;28;97693;-63
2021/11/14 00:31:48;;;;;;;;;60.00;44.60;;;;;11.08;51.29;99070.91;6017274;28;97918;-63
2021/11/14 00:34:51;;;;;;;;;57.40;44.40;;;;;11.10;51.37;99076.91;6038997;28;99393;-63
2021/11/14 00:37:56;;;;;;;;;52.40;42.00;;;;;11.08;51.48;99070.91;6039033;28;96723;-62
2021/11/14 00:40:59;;;;;;;;;55.60;42.00;;;;;11.08;51.34;99073.59;6040865;28;96909;-62
2021/11/14 00:44:05;;;;;;;;;55.60;42.40;;;;;10.97;51.47;99082.41;6042322;28;98112;-62
2021/11/14 00:47:08;;;;;;;;;54.60;41.40;;;;;10.91;51.85;99089.50;6041155;28;96921;-63
2021/11/14 00:50:12;;;;;;;;;56.00;43.50;;;;;10.86;52.03;99086.63;6040429;28;97460;-62
2021/11/14 00:53:19;;;;;;;;;56.00;42.25;;;;;10.93;51.97;99078.50;6021764;28;97832;-63
2021/11/14 00:56:22;;;;;;;;;55.40;43.00;;;;;11.03;51.72;99079.66;6041689;28;97549;-63
2021/11/14 00:59:25;;;;;;;;;55.40;42.60;;;;;11.10;51.78;99083.13;6040136;28;97527;-63
2021/11/14 01:02:28;;;;;;;;;54.80;41.40;;;;;11.20;51.69;99088.84;6038755;28;97439;-63
2021/11/14 01:05:33;;;;;;;;;53.00;40.00;;;;;11.32;51.42;99082.75;6041847;28;97354;-62
2021/11/14 01:08:38;;;;;;;;;53.00;41.00;;;;;11.36;51.38;99078.53;6042827;28;96409;-63
2021/11/14 01:11:42;;;;;;;;;56.60;43.40;;;;;11.44;51.15;99083.66;6039549;28;100172;-62
2021/11/14 01:14:45;;;;;;;;;55.40;42.40;;;;;11.49;51.01;99079.25;6037834;28;96940;-62
2021/11/14 01:17:49;;;;;;;;;53.00;41.40;;;;;11.51;50.87;99087.13;6016473;28;99499;-62
2021/11/14 01:20:55;;;;;;;;;52.00;40.80;;;;;11.49;50.81;99086.50;6038832;28;98194;-63
2021/11/14 01:24:00;;;;;;;;;52.00;40.60;;;;;11.51;50.67;99090.66;6040596;28;97475;-62
2021/11/14 01:27:04;;;;;;;;;49.60;39.00;;;;;11.54;50.78;99086.66;6041470;28;96848;-62
2021/11/14 01:30:11;;;;;;;;;52.60;40.60;;;;;11.55;50.83;99080.22;6018068;28;97818;-63
2021/11/14 01:33:17;;;;;;;;;53.60;40.00;;;;;11.57;50.71;99089.78;6036789;28;97418;-63
2021/11/14 01:36:20;;;;;;;;;53.40;41.80;;;;;11.57;50.68;99084.38;6039874;28;99488;-62
2021/11/14 01:39:25;;;;;;;;;51.25;39.00;;;;;11.61;50.62;99087.44;6040799;28;97485;-63
2021/11/14 01:42:28;;;;;;;;;53.60;41.00;;;;;11.68;50.29;99090.88;6039936;28;97526;-63
2021/11/14 01:45:32;;;;;;;;;51.50;41.00;;;;;11.71;50.47;99090.44;6039582;28;97065;-62
2021/11/14 01:48:35;;;;;;;;;50.80;40.00;;;;;11.72;49.84;99086.72;6042891;28;97257;-64
2021/11/14 01:51:39;;;;;;;;;51.00;40.00;;;;;11.73;50.37;99091.91;6040311;28;97937;-64
2021/11/14 01:54:43;;;;;;;;;51.60;41.80;;;;;11.74;50.24;99092.72;6042210;28;98094;-63
2021/11/14 01:57:48;;;;;;;;;51.80;41.00;;;;;11.73;49.62;99092.97;6035829;28;97174;-64
2021/11/14 02:00:54;;;;;;;;;49.40;39.00;;;;;11.71;49.87;99085.88;6043046;28;97495;-63
2021/11/14 02:04:03;;;;;;;;;52.75;40.00;;;;;11.69;50.07;99079.88;6041064;28;96504;-64
2021/11/14 02:07:06;;;;;;;;;52.75;39.75;;;;;11.73;50.31;99085.66;6046063;28;97197;-63
2021/11/14 02:10:12;;;;;;;;;52.60;42.00;;;;;11.74;50.42;99092.72;6043425;28;96837;-64
2021/11/14 02:13:15;;;;;;;;;50.00;39.00;;;;;11.70;49.90;99100.44;6051775;28;97257;-63
2021/11/14 02:16:21;;;;;;;;;53.00;38.50;;;;;11.72;49.50;99100.22;6044454;28;96469;-63
2021/11/14 02:19:25;;;;;;;;;49.60;38.00;;;;;11.71;49.52;99095.84;6044607;28;97067;-64
2021/11/14 02:22:29;;;;;;;;;52.33;39.67;;;;;11.64;49.50;99095.91;6043308;28;96662;-64
2021/11/14 02:25:35;;;;;;;;;47.50;39.00;;;;;11.62;49.55;99106.13;6043860;28;97074;-63
2021/11/14 02:28:38;;;;;;;;;51.40;38.00;;;;;11.65;49.87;99102.97;6044439;28;97823;-63
2021/11/14 02:31:42;;;;;;;;;51.00;39.00;;;;;11.62;49.51;99108.00;6042098;28;96770;-63
2021/11/14 02:34:45;;;;;;;;;49.00;37.80;;;;;11.54;49.58;99101.00;6039881;28;97356;-63
2021/11/14 02:37:51;;;;;;;;;52.00;40.50;;;;;11.55;49.71;99102.66;6022533;28;97834;-63
2021/11/14 02:40:55;;;;;;;;;53.00;41.00;;;;;11.48;49.92;99099.22;6046012;28;97304;-64
2021/11/14 02:43:59;;;;;;;;;53.80;40.00;;;;;11.49;49.86;99108.94;6010993;28;97771;-63
2021/11/14 02:47:02;;;;;;;;;50.20;40.80;;;;;11.46;49.85;99111.25;6038244;28;98312;-63
2021/11/14 02:50:08;;;;;;;;;52.40;40.80;;;;;11.41;49.71;99109.22;6042985;28;97384;-63
2021/11/14 02:53:12;;;;;;;;;52.00;40.20;;;;;11.44;49.73;99105.25;6025881;28;97674;-63
2021/11/14 02:56:17;;;;;;;;;50.00;41.00;;;;;11.42;49.54;99116.28;6036107;28;96671;-64
2021/11/14 02:59:20;;;;;;;;;52.00;39.60;;;;;11.50;49.59;99117.88;6024891;28;97829;-63
2021/11/14 03:02:23;;;;;;;;;49.80;39.00;;;;;11.44;49.57;99089.03;6043096;28;97235;-63
2021/11/14 03:05:27;;;;;;;;;54.00;43.00;;;;;11.42;49.53;99086.59;6042926;28;97672;-64
2021/11/14 03:08:32;;;;;;;;;51.00;39.00;;;;;11.69;49.23;99120.38;6039096;28;97672;-63
2021/11/14 03:11:35;;;;;;;;;49.40;39.00;;;;;11.71;49.16;99117.47;6043449;28;96735;-63
2021/11/14 03:14:58;;;;;;;;;53.00;40.00;;;;;11.62;49.31;99118.81;6043683;28;97424;-63
2021/11/14 03:18:01;;;;;;;;;49.00;38.00;;;;;11.51;49.40;99122.22;6042456;28;97530;-64
2021/11/14 03:21:06;;;;;;;;;51.80;40.40;;;;;11.34;49.95;99121.94;6043871;28;98075;-63
2021/11/14 03:24:10;;;;;;;;;52.00;37.00;;;;;11.14;50.59;99124.81;6042022;28;97101;-63
2021/11/14 03:27:14;;;;;;;;;53.00;41.00;;;;;11.13;50.59;99116.94;6032571;28;98162;-62
2021/11/14 03:30:17;;;;;;;;;50.00;38.60;;;;;11.16;50.43;99121.91;6022407;28;96996;-63
2021/11/14 03:33:22;;;;;;;;;50.40;38.40;;;;;10.86;51.09;99113.59;6034560;28;96581;-63
2021/11/14 03:36:28;;;;;;;;;52.00;39.40;;;;;10.75;51.36;99119.72;6042900;28;98177;-63
2021/11/14 03:39:35;;;;;;;;;52.00;40.00;;;;;10.74;51.46;99123.44;6038088;28;96788;-63
2021/11/14 03:42:39;;;;;;;;;47.00;38.00;;;;;10.42;51.97;99128.78;6041884;28;98951;-63
2021/11/14 03:45:42;;;;;;;;;48.60;38.00;;;;;10.47;51.99;99127.31;6027919;28;96725;-63
2021/11/14 03:48:50;;;;;;;;;51.60;39.60;;;;;10.41;52.11;99129.00;6039940;28;97812;-62
2021/11/14 03:51:55;;;;;;;;;52.00;38.00;;;;;10.21;52.47;99128.28;6040529;28;98136;-63
2021/11/14 03:55:00;;;;;;;;;52.00;39.00;;;;;10.30;52.46;99132.38;6042507;28;97519;-62
2021/11/14 03:58:05;;;;;;;;;47.60;37.00;;;;;9.95;52.88;99123.78;6033714;28;96968;-61
2021/11/14 04:01:12;;;;;;;;;52.00;40.00;;;;;9.99;52.92;99120.44;6039904;28;96942;-61
2021/11/14 04:04:15;;;;;;;;;50.50;38.00;;;;;10.11;52.63;99128.72;6013258;28;97721;-62
2021/11/14 04:07:19;;;;;;;;;50.00;39.00;;;;;10.19;52.38;99136.56;6039971;28;97707;-63
2021/11/14 04:10:23;;;;;;;;;52.00;39.00;;;;;10.33;52.18;99137.34;6038037;28;97967;-62
2021/11/14 04:13:30;;;;;;;;;50.00;38.00;;;;;10.42;52.01;99136.06;6033484;28;97439;-63
2021/11/14 04:16:34;;;;;;;;;47.50;36.00;;;;;10.38;51.81;99137.53;6024481;28;98422;-62
2021/11/14 04:19:38;;;;;;;;;46.40;37.40;;;;;10.46;51.82;99139.16;6038490;28;96831;-62
2021/11/14 04:22:41;;;;;;;;;52.40;39.00;;;;;10.50;51.25;99140.38;6040232;28;98904;-63
2021/11/14 04:25:47;;;;;;;;;48.60;38.00;;;;;10.57;51.47;99143.84;6042713;28;96723;-62
2021/11/14 04:28:50;;;;;;;;;48.80;38.00;;;;;10.58;51.28;99146.34;6040269;28;98104;-62
2021/11/14 04:31:54;;;;;;;;;50.60;39.00;;;;;10.62;51.26;99154.81;6042184;28;96841;-63
2021/11/14 04:34:57;;;;;;;;;48.00;38.00;;;;;10.66;51.42;99153.34;6046634;28;96479;-62
2021/11/14 04:38:01;;;;;;;;;52.00;39.40;;;;;10.68;51.11;99165.59;6025695;28;97762;-63
2021/11/14 04:41:06;;;;;;;;;47.33;38.00;;;;;10.70;51.06;99163.47;6034982;28;97401;-63
2021/11/14 04:44:09;;;;;;;;;50.80;39.00;;;;;10.73;51.11;99160.38;6039936;28;96822;-63
2021/11/14 04:47:13;;;;;;;;;54.75;40.00;;;;;10.82;51.13;99169.03;6042236;28;98130;-62
2021/11/14 04:50:20;;;;;;;;;50.00;39.00;;;;;10.88;50.74;99162.78;6042305;28;97436;-62
2021/11/14 04:53:23;;;;;;;;;52.60;38.20;;;;;10.86;50.86;99159.47;6041857;28;97056;-63
2021/11/14 04:56:28;;;;;;;;;50.75;40.00;;;;;10.91;50.68;99173.13;6036126;28;97400;-63
2021/11/14 04:59:31;;;;;;;;;54.00;40.20;;;;;10.98;50.58;99173.09;6032236;28;98557;-62
2021/11/14 05:02:35;;;;;;;;;51.40;40.00;;;;;11.06;50.60;99179.03;6036551;28;96627;-62
2021/11/14 05:05:41;;;;;;;;;52.40;39.00;;;;;11.09;50.40;99178.59;6045181;28;97649;-62
2021/11/14 05:08:44;;;;;;;;;50.60;39.60;;;;;11.12;50.43;99186.28;6038520;28;97379;-63
2021/11/14 05:11:49;;;;;;;;;51.20;39.00;;;;;11.11;50.41;99187.31;6039980;28;96814;-63
2021/11/14 05:14:52;;;;;;;;;57.00;41.00;;;;;11.14;50.51;99186.88;6041010;28;97437;-64
2021/11/14 05:17:56;;;;;;;;;52.40;40.00;;;;;11.11;50.64;99181.91;6045343;28;99191;-63
2021/11/14 05:20:59;;;;;;;;;54.60;40.00;;;;;11.16;50.67;99195.59;6022964;28;97954;-63
2021/11/14 05:24:02;;;;;;;;;53.00;41.00;;;;;11.06;50.75;99205.19;6026979;28;97133;-63
2021/11/14 05:27:07;;;;;;;;;51.20;37.80;;;;;11.02;51.08;99195.88;6044708;28;96592;-63
2021/11/14 05:30:12;;;;;;;;;52.50;38.00;;;;;11.06;51.03;99206.03;6042299;28;97473;-64
2021/11/14 05:33:16;;;;;;;;;55.80;41.00;;;;;11.06;51.17;99200.63;6040510;28;96885;-63
2021/11/14 05:36:19;;;;;;;;;50.20;40.20;;;;;10.78;51.55;99205.56;6044999;28;97561;-63
2021/11/14 05:39:22;;;;;;;;;55.50;41.00;;;;;10.88;51.55;99208.63;6041145;28;97698;-63
2021/11/14 05:42:28;;;;;;;;;53.00;41.67;;;;;10.90;51.44;99211.91;6042154;28;97517;-61
2021/11/14 05:45:32;;;;;;;;;55.00;42.00;;;;;10.86;51.49;99208.00;6041861;28;97595;-62
2021/11/14 05:48:35;;;;;;;;;54.40;42.00;;;;;10.91;51.59;99215.44;6019819;28;97213;-62
2021/11/14 05:51:38;;;;;;;;;53.40;41.80;;;;;10.98;51.44;99216.25;6043013;28;96942;-62
2021/11/14 05:54:42;;;;;;;;;52.75;40.00;;;;;11.05;51.29;99223.25;6044594;28;96641;-62
2021/11/14 05:57:53;;;;;;;;;53.80;41.00;;;;;11.11;51.23;99219.69;6044250;28;96845;-61
2021/11/14 06:01:07;;;;;;;;;52.40;41.00;;;;;11.14;50.97;99229.25;6042549;28;97794;-62
2021/11/14 06:04:18;;;;;;;;;49.80;41.20;;;;;11.15;50.89;99231.69;6039113;28;97554;-63
2021/11/14 06:07:21;;;;;;;;;53.00;39.40;;;;;11.21;50.81;99238.09;6041257;28;96587;-62
2021/11/14 06:10:25;;;;;;;;;56.40;41.00;;;;;11.24;50.67;99243.88;6017294;28;98463;-62
2021/11/14 06:13:32;;;;;;;;;51.60;40.00;;;;;11.18;50.76;99238.56;6037809;28;97259;-63
2021/11/14 06:16:35;;;;;;;;;50.80;39.00;;;;;11.17;51.02;99245.81;6046512;28;97705;-63
2021/11/14 06:19:38;;;;;;;;;50.00;39.00;;;;;11.10;50.72;99253.13;6044766;28;98057;-62
2021/11/14 06:22:42;;;;;;;;;49.00;38.00;;;;;11.05;51.00;99261.03;6042768;28;97854;-63
2021/11/14 06:25:45;;;;;;;;;52.50;40.00;;;;;10.98;51.15;99264.81;6034630;28;96824;-63
2021/11/14 06:28:50;;;;;;;;;50.00;38.20;;;;;10.98;51.26;99262.94;6026509;28;97946;-62
2021/11/14 06:31:53;;;;;;;;;49.00;38.00;;;;;10.97;51.20;99280.16;6042290;28;97136;-63
2021/11/14 06:34:59;;;;;;;;;51.20;38.80;;;;;11.06;51.04;99278.03;6050444;28;97530;-62
2021/11/14 06:38:03;;;;;;;;;52.40;41.40;;;;;11.15;50.92;99277.59;6047490;28;97477;-63
2021/11/14 06:41:07;;;;;;;;;50.40;38.00;;;;;11.23;50.83;99282.75;6037976;28;96983;-62
2021/11/14 06:44:12;;;;;;;;;51.00;38.00;;;;;11.13;50.95;99289.66;6044507;28;97494;-62
2021/11/14 06:47:16;;;;;;;;;53.00;40.00;;;;;11.17;50.98;99286.31;6042817;28;96738;-62
2021/11/14 06:50:19;;;;;;;;;47.80;39.00;;;;;11.29;50.90;99291.81;6026382;28;97821;-62
2021/11/14 06:53:23;;;;;;;;;52.40;40.40;;;;;11.43;50.62;99301.53;6042922;28;96725;-62
2021/11/14 06:56:26;;;;;;;;;51.20;40.60;;;;;11.39;50.52;99302.16;6043638;28;97261;-63
2021/11/14 06:59:32;;;;;;;;;49.00;38.00;;;;;11.25;50.59;99307.63;6045811;28;97539;-63
2021/11/14 07:02:36;;;;;;;;;51.60;38.40;;;;;11.17;51.02;99307.88;6017331;28;99540;-62
2021/11/14 07:05:39;;;;;;;;;54.00;38.67;;;;;11.28;50.97;99309.09;6054382;28;97115;-62
2021/11/14 07:08:42;;;;;;;;;54.80;41.00;;;;;11.39;50.86;99312.94;6044923;28;97433;-62
2021/11/14 07:11:46;;;;;;;;;53.40;41.00;;;;;11.39;50.61;99310.25;6041625;28;97686;-63
2021/11/14 07:14:50;;;;;;;;;54.00;40.00;;;;;11.45;50.47;99320.19;6025425;28;98420;-63
2021/11/14 07:17:54;;;;;;;;;51.60;39.60;;;;;11.48;50.38;99322.47;6043100;28;97471;-63
2021/11/14 07:20:57;;;;;;;;;55.80;41.40;;;;;11.44;50.72;99326.63;6039441;28;96856;-62
2021/11/14 07:24:01;;;;;;;;;49.00;38.00;;;;;11.47;50.73;99320.81;6042300;28;97408;-63
2021/11/14 07:27:05;;;;;;;;;54.00;41.00;;;;;11.56;50.57;99324.91;6041790;28;96493;-63
2021/11/14 07:30:11;;;;;;;;;53.00;40.00;;;;;11.63;50.28;99325.72;6037918;28;97028;-63
2021/11/14 07:33:14;;;;;;;;;52.60;39.80;;;;;11.72;50.19;99332.50;6041131;28;96539;-64
2021/11/14 07:36:18;;;;;;;;;56.75;42.00;;;;;11.71;50.22;99334.38;6042775;28;96677;-62
2021/11/14 07:39:21;;;;;;;;;54.60;39.80;;;;;11.75;50.23;99336.66;6042464;28;97992;-62
2021/11/14 07:42:24;;;;;;;;;55.20;41.80;;;;;11.77;50.01;99327.31;6042981;28;97668;-62
2021/11/14 07:45:34;;;;;;;;;55.25;42.00;;;;;11.86;49.77;99325.97;6040207;28;96452;-63
2021/11/14 07:48:37;;;;;;;;;52.20;41.20;;;;;11.93;49.68;99326.75;6042775;28;97463;-64
2021/11/14 07:51:40;;;;;;;;;56.50;42.00;;;;;11.99;49.62;99331.28;6024332;28;98454;-64
2021/11/14 07:54:44;;;;;;;;;57.60;41.60;;;;;11.80;49.81;99307.94;6024425;28;96723;-63
2021/11/14 07:57:48;;;;;;;;;57.00;42.60;;;;;11.93;49.76;99329.44;6041597;28;97450;-63
2021/11/14 08:00:52;;;;;;;;;53.80;42.00;;;;;11.94;49.48;99330.28;6042331;28;97484;-64
2021/11/14 08:03:56;;;;;;;;;54.40;41.40;;;;;11.71;49.86;99325.44;6040700;28;97522;-63
2021/11/14 08:06:59;;;;;;;;;52.60;41.00;;;;;11.66;49.96;99334.19;6038766;28;97542;-63
2021/11/14 08:10:03;;;;;;;;;52.50;41.00;;;;;11.55;50.14;99329.47;6037082;28;99136;-64
2021/11/14 08:13:07;;;;;;;;;58.25;42.25;;;;;11.50;50.27;99342.81;6040853;28;96855;-63
2021/11/14 08:16:12;;;;;;;;;58.00;41.25;;;;;11.57;50.05;99334.66;6042214;28;96890;-63
2021/11/14 08:19:15;;;;;;;;;52.00;40.00;;;;;11.54;50.16;99344.03;6039241;28;97309;-63
2021/11/14 08:22:19;;;;;;;;;56.40;42.40;;;;;11.59;50.46;99346.06;6024656;28;99661;-63
2021/11/14 08:25:23;;;;;;;;;54.00;42.00;;;;;11.68;50.24;99340.19;6038294;28;97814;-62
2021/11/14 08:28:26;;;;;;;;;56.20;43.80;;;;;11.86;49.90;99344.91;6041284;28;97515;-64
2021/11/14 08:31:31;;;;;;;;;56.00;42.40;;;;;11.92;49.52;99352.13;6028650;28;98398;-63
2021/11/14 08:34:34;;;;;;;;;56.20;41.60;;;;;11.95;49.33;99353.56;6046385;28;99375;-64
2021/11/14 08:37:38;;;;;;;;;53.40;41.80;;;;;11.91;49.55;99349.63;6041687;28;98852;-63
2021/11/14 08:40:42;;;;;;;;;58.60;43.60;;;;;11.79;49.90;99352.22;6031810;28;98484;-63
2021/11/14 08:43:45;;;;;;;;;57.00;42.00;;;;;11.76;49.89;99354.53;6047780;28;96783;-63
2021/11/14 08:46:50;;;;;;;;;57.40;43.00;;;;;11.67;50.24;99356.63;6027287;28;98045;-64
2021/11/14 08:49:53;;;;;;;;;55.00;43.00;;;;;11.82;49.95;99378.81;6023990;28;100123;-64
2021/11/14 08:52:58;;;;;;;;;58.00;42.00;;;;;11.73;50.23;99371.97;6042332;28;97437;-62
2021/11/14 08:56:02;;;;;;;;;57.00;44.00;;;;;11.80;50.11;99374.66;6042109;28;97517;-62
2021/11/14 08:59:08;;;;;;;;;55.20;40.20;;;;;11.97;49.78;99375.78;6043931;28;96966;-62
2021/11/14 09:02:14;;;;;;;;;51.60;40.00;;;;;11.92;49.71;99376.44;6044749;28;96585;-62
2021/11/14 09:05:20;;;;;;;;;58.00;42.60;;;;;11.88;49.79;99358.16;6044018;28;97360;-62
2021/11/14 09:08:23;;;;;;;;;61.00;43.40;;;;;12.14;49.51;99374.19;6042350;28;98436;-63
2021/11/14 09:11:26;;;;;;;;;57.00;43.00;;;;;12.21;49.35;99374.16;6026695;28;97035;-63
2021/11/14 09:14:30;;;;;;;;;54.60;41.40;;;;;12.27;49.20;99367.84;6044155;28;96817;-62
2021/11/14 09:17:35;;;;;;;;;61.80;44.20;;;;;12.34;49.01;99374.03;6040864;28;97859;-64
2021/11/14 09:20:38;;;;;;;;;53.00;41.00;;;;;12.38;48.99;99369.84;6025897;28;96873;-64
2021/11/14 09:23:41;;;;;;;;;56.80;44.60;;;;;12.45;48.71;99374.16;6032103;28;97855;-62
2021/11/14 09:26:45;;;;;;;;;57.25;43.25;;;;;12.57;48.59;99372.34;6046626;28;97464;-63
2021/11/14 09:29:49;;;;;;;;;56.60;43.00;;;;;12.70;47.99;99376.84;6044687;28;97505;-63
2021/11/14 09:32:53;;;;;;;;;57.00;43.50;;;;;12.80;48.04;99376.31;6045004;28;96616;-63
2021/11/14 09:35:57;;;;;;;;;55.60;43.00;;;;;12.82;47.67;99382.31;6037859;28;96801;-62
2021/11/14 09:39:02;;;;;;;;;56.20;43.60;;;;;12.78;47.79;99379.22;6044099;28;96637;-63
2021/11/14 09:42:07;;;;;;;;;55.33;43.00;;;;;12.78;47.84;99386.53;6043876;28;96640;-62
2021/11/14 09:45:11;;;;;;;;;56.50;43.00;;;;;12.80;47.65;99392.56;6041673;28;97587;-63
2021/11/14 09:48:16;;;;;;;;;52.00;41.00;;;;;12.90;47.60;99384.75;6045853;28;96746;-62
2021/11/14 09:51:19;;;;;;;;;55.40;42.20;;;;;12.97;47.59;99385.47;6043231;28;96817;-62
2021/11/14 09:54:25;;;;;;;;;52.00;41.40;;;;;13.07;47.16;99385.78;6040829;28;97162;-62
2021/11/14 09:57:28;;;;;;;;;59.40;44.00;;;;;13.12;47.07;99380.56;6027280;28;96869;-63
2021/11/14 10:00:32;;;;;;;;;52.20;41.20;;;;;13.13;47.12;99386.81;6043791;28;97471;-63
2021/11/14 10:03:37;;;;;;;;;52.00;40.00;;;;;13.15;47.07;99384.69;6043802;28;96555;-64
2021/11/14 10:06:40;;;;;;;;;54.50;42.00;;;;;13.22;46.76;99383.56;6040022;28;96532;-62
2021/11/14 10:09:47;;;;;;;;;52.25;41.00;;;;;13.23;46.74;99379.81;6040954;28;97250;-62
2021/11/14 10:12:50;;;;;;;;;52.60;41.00;;;;;13.30;46.92;99388.66;6040746;28;96570;-62
2021/11/14 10:16:06;;;;;;;;;57.25;42.50;;;;;13.38;46.74;99385.66;6045198;28;97512;-62
2021/11/14 10:19:13;;;;;;;;;56.00;42.40;;;;;13.43;46.30;99395.81;6030280;28;97838;-62
2021/11/14 10:22:18;;;;;;;;;55.00;43.00;;;;;13.49;46.40;99399.50;6043215;28;96867;-63
2021/11/14 10:25:22;;;;;;;;;53.00;41.00;;;;;13.46;46.42;99387.22;6042010;28;97078;-64
2021/11/14 10:28:28;;;;;;;;;51.60;42.00;;;;;13.31;46.55;99411.97;6043787;28;96988;-62
2021/11/14 10:31:32;;;;;;;;;53.00;41.75;;;;;13.28;46.54;99400.78;6022186;28;98444;-62
2021/11/14 10:34:45;;;;;;;;;56.00;42.00;;;;;13.35;46.98;99404.22;6042942;28;96596;-63
2021/11/14 10:37:50;;;;;;;;;56.00;43.60;;;;;13.43;47.10;99410.19;6044482;28;97139;-62
2021/11/14 10:40:57;;;;;;;;;57.60;44.00;;;;;13.52;46.95;99410.69;6052863;28;97495;-63
2021/11/14 10:44:11;;;;;;;;;55.40;42.60;;;;;13.50;46.43;99409.25;6034708;28;97040;-62
2021/11/14 10:47:20;;;;;;;;;54.40;41.00;;;;;13.57;46.49;99413.53;6032338;28;97143;-62
2021/11/14 10:50:28;;;;;;;;;55.40;43.00;;;;;13.64;46.30;99408.84;6044098;28;98126;-62
2021/11/14 10:53:33;;;;;;;;;52.20;41.00;;;;;13.66;46.14;99414.88;6041181;28;97494;-62
2021/11/14 10:56:38;;;;;;;;;54.20;42.80;;;;;13.49;46.41;99407.63;6023838;28;96703;-62
2021/11/14 10:59:48;;;;;;;;;60.00;43.33;;;;;13.15;47.08;99417.16;6045849;28;97049;-65
2021/11/14 11:02:52;;;;;;;;;60.00;45.00;;;;;13.05;47.24;99411.44;6045429;28;97523;-62
2021/11/14 11:05:57;;;;;;;;;53.50;41.75;;;;;13.07;47.53;99412.03;6041974;28;97085;-62
2021/11/14 11:09:02;;;;;;;;;52.40;40.00;;;;;13.02;47.42;99407.28;6043462;28;97119;-62
2021/11/14 11:12:19;;;;;;;;;55.60;42.00;;;;;13.12;47.48;99413.03;6044572;28;96905;-64
2021/11/14 11:15:22;;;;;;;;;53.75;42.50;;;;;13.14;47.48;99405.53;6026928;28;97532;-64
2021/11/14 11:18:25;;;;;;;;;54.00;41.00;;;;;13.31;47.51;99403.84;6043544;28;97435;-64
2021/11/14 11:21:35;;;;;;;;;56.40;43.00;;;;;13.44;47.19;99408.28;6043663;28;97923;-63
2021/11/14 11:24:48;;;;;;;;;55.40;42.20;;;;;13.58;46.89;99406.25;6043386;28;97305;-62
2021/11/14 11:27:55;;;;;;;;;55.00;41.00;;;;;13.68;46.26;99404.63;6056941;28;97332;-62
2021/11/14 11:31:01;;;;;;;;;52.60;41.00;;;;;13.72;45.97;99405.84;6048095;28;97572;-63
2021/11/14 11:34:04;;;;;;;;;50.80;40.00;;;;;13.81;45.98;99418.00;6043929;28;96688;-63
2021/11/14 11:37:10;;;;;;;;;55.00;42.00;;;;;13.85;46.02;99415.66;6041511;28;96743;-63
2021/11/14 11:40:13;;;;;;;;;49.00;39.00;;;;;13.88;45.46;99416.03;6042308;28;96630;-62
2021/11/14 11:43:17;;;;;;;;;51.80;40.00;;;;;13.91;45.49;99420.16;6026478;28;97491;-62
2021/11/14 11:46:28;;;;;;;;;53.00;40.00;;;;;13.88;45.62;99412.47;6042682;28;97562;-62
2021/11/14 11:49:33;;;;;;;;;52.00;40.00;;;;;13.93;45.70;99417.25;6027083;28;96589;-62
2021/11/14 11:52:42;;;;;;;;;56.00;41.60;;;;;13.79;45.84;99411.16;6036105;28;97099;-62
2021/11/14 11:55:45;;;;;;;;;53.80;41.40;;;;;13.84;45.87;99416.72;6038571;28;97181;-63
2021/11/14 11:58:50;;;;;;;;;50.75;40.00;;;;;13.53;45.97;99425.06;6042485;28;97024;-63
2021/11/14 12:01:56;;;;;;;;;52.00;40.00;;;;;13.34;46.66;99424.25;6043191;28;97112;-63
2021/11/14 12:05:07;;;;;;;;;50.00;40.67;;;;;13.37;46.67;99424.63;6042815;28;97221;-63
2021/11/14 12:08:15;;;;;;;;;53.80;40.00;;;;;13.30;46.75;99423.88;6042635;28;97056;-62
2021/11/14 12:11:29;;;;;;;;;52.20;40.20;;;;;13.28;47.20;99427.88;6044173;28;97582;-62
2021/11/14 12:14:35;;;;;;;;;53.40;41.00;;;;;13.36;47.04;99422.13;6026586;28;97378;-62
2021/11/14 12:17:40;;;;;;;;;51.50;39.00;;;;;13.36;46.78;99425.69;6036369;28;96720;-62
2021/11/14 12:20:47;;;;;;;;;53.00;40.40;;;;;13.36;47.04;99422.97;6021149;28;98005;-61
2021/11/14 12:23:55;;;;;;;;;52.40;40.00;;;;;13.29;47.33;99435.75;6042461;28;97221;-63
2021/11/14 12:27:00;;;;;;;;;53.00;41.00;;;;;13.26;47.11;99427.25;6042831;28;96787;-64
2021/11/14 12:30:08;;;;;;;;;52.00;41.00;;;;;13.12;47.40;99442.81;6042574;28;96693;-64
2021/11/14 12:33:21;;;;;;;;;51.25;38.00;;;;;12.92;47.74;99444.88;6017015;29;96969;-63
2021/11/14 12:36:33;;;;;;;;;49.20;38.00;;;;;12.62;48.69;99442.00;6034541;28;97610;-63
2021/11/14 12:39:40;;;;;;;;;49.50;39.00;;;;;12.56;48.82;99443.72;6039172;28;96687;-63
2021/11/14 12:42:44;;;;;;;;;52.60;39.00;;;;;12.79;48.63;99445.84;6055051;28;98226;-63
2021/11/14 12:45:53;;;;;;;;;52.25;39.00;;;;;12.80;48.23;99442.09;6048463;28;96958;-63
2021/11/14 12:48:57;;;;;;;;;49.60;38.80;;;;;12.97;48.13;99440.44;6030574;28;97125;-63
2021/11/14 12:52:03;;;;;;;;;50.75;39.75;;;;;13.09;47.91;99443.25;6043713;28;97302;-62
2021/11/14 12:55:11;;;;;;;;;52.00;40.00;;;;;13.14;47.73;99442.59;6042484;28;97157;-63
2021/11/14 12:58:17;;;;;;;;;52.50;38.50;;;;;13.23;47.59;99444.78;6041808;28;97533;-63
2021/11/14 13:01:23;;;;;;;;;48.60;38.40;;;;;13.22;47.34;99450.41;6041049;28;97201;-63
2021/11/14 13:04:30;;;;;;;;;50.20;37.60;;;;;13.11;47.51;99449.28;6019942;28;98403;-63
2021/11/14 13:07:36;;;;;;;;;46.80;37.00;;;;;13.14;47.43;99446.16;6039465;28;97537;-62
2021/11/14 13:10:48;;;;;;;;;50.40;38.00;;;;;13.22;47.44;99436.88;6026286;28;97932;-64
2021/11/14 13:14:04;;;;;;;;;49.60;39.00;;;;;13.23;47.31;99450.22;6040137;28;97994;-64
2021/11/14 13:17:09;;;;;;;;;49.00;38.00;;;;;13.25;47.01;99452.66;6044931;28;96661;-64
2021/11/14 13:20:15;;;;;;;;;47.00;36.00;;;;;13.28;47.08;99449.53;6043279;28;97421;-62
2021/11/14 13:23:18;;;;;;;;;48.40;37.60;;;;;13.38;47.03;99447.94;6036787;28;96747;-62
2021/11/14 13:26:30;;;;;;;;;53.00;39.60;;;;;13.40;47.01;99450.41;6009261;29;97519;-62
2021/11/14 13:29:36;;;;;;;;;47.00;35.20;;;;;13.47;46.87;99456.59;6034321;28;96851;-65
2021/11/14 13:32:39;;;;;;;;;49.40;38.60;;;;;13.29;47.17;99434.94;6026762;28;97744;-63
2021/11/14 13:35:42;;;;;;;;;52.40;39.40;;;;;13.44;46.98;99457.84;6049092;28;96680;-63
2021/11/14 13:38:48;;;;;;;;;49.00;38.00;;;;;13.36;47.08;99460.88;6032849;28;97508;-64
2021/11/14 13:41:56;;;;;;;;;50.60;39.00;;;;;13.29;47.11;99467.44;6041421;28;97558;-63
2021/11/14 13:45:03;;;;;;;;;47.40;38.00;;;;;13.33;47.24;99465.94;6026229;28;97838;-63
2021/11/14 13:48:08;;;;;;;;;47.40;36.40;;;;;13.35;47.20;99470.06;6048504;28;97420;-63
2021/11/14 13:51:12;;;;;;;;;51.80;39.20;;;;;13.40;47.05;99472.09;6049365;28;96814;-62
2021/11/14 13:54:15;;;;;;;;;47.80;38.00;;;;;13.39;47.10;99471.25;6028122;28;97589;-63
2021/11/14 13:57:23;;;;;;;;;47.60;37.60;;;;;13.37;47.16;99477.97;6042389;28;98171;-63
2021/11/14 14:00:28;;;;;;;;;48.25;38.00;;;;;13.33;47.09;99491.13;6025484;28;98933;-63
2021/11/14 14:03:32;;;;;;;;;50.20;38.00;;;;;13.31;47.23;99482.41;6043889;28;97327;-63
2021/11/14 14:06:35;;;;;;;;;48.60;36.60;;;;;13.26;47.44;99490.34;6035107;28;96683;-63
2021/11/14 14:09:38;;;;;;;;;48.00;37.75;;;;;13.31;47.60;99498.63;6024977;28;96898;-62